sensor_id;sensor_type;location;lat;lon;timestamp;P1;P2;P0
40569;PMS5003;26270;34.428;-119.710;2022-08-03T00:01:16;5;5;
40569;PMS5003;26270;34.428;-119.710;2022-08-03T00:03:44;5;4;
40569;PMS5003;26270;34.428;-119.710;2022-08-03T00:06:12;4;4;
40569;PMS5003;26270;34.428;-119.710;2022-08-03T00:08:40;7;5;
40569;PMS5003;26270;34.428;-119.710;2022-08-03T00:11:08;5;4;
40569;PMS5003;26270;34.428;-119.710;2022-08-03T00:13:36;5;4;
40569;PMS5003;26270;34.428;-119.710;2022-08-03T00:16:04;6;5;
40569;PMS5003;26270;34.428;-119.710;2022-08-03T00:18:32;6;5;
40569;PMS5003;26270;34.428;-119.710;2022-08-03T00:21:01;5;5;
40569;PMS5003;26270;34.428;-119.710;2022-08-03T00:23:29;6;6;
40569;PMS5003;26270;34.428;-119.710;2022-08-03T00:25:57;6;6;
40569;PMS5003;26270;34.428;-119.710;2022-08-03T00:28:26;5;5;
40569;PMS5003;26270;34.428;-119.710;2022-08-03T00:30:54;4;4;
40569;PMS5003;26270;34.428;-119.710;2022-08-03T00:33:23;5;5;
40569;PMS5003;26270;34.428;-119.710;2022-08-03T00:35:51;5;4;
40569;PMS5003;26270;34.428;-119.710;2022-08-03T00:38:19;8;6;
40569;PMS5003;26270;34.428;-119.710;2022-08-03T00:40:47;5;5;
40569;PMS5003;26270;34.428;-119.710;2022-08-03T00:43:15;6;6;
40569;PMS5003;26270;34.428;-119.710;2022-08-03T00:45:43;5;5;
40569;PMS5003;26270;34.428;-119.710;2022-08-03T00:48:11;7;6;
40569;PMS5003;26270;34.428;-119.710;2022-08-03T00:50:40;7;6;
40569;PMS5003;26270;34.428;-119.710;2022-08-03T00:53:09;7;6;
40569;PMS5003;26270;34.428;-119.710;2022-08-03T00:55:38;6;5;
40569;PMS5003;26270;34.428;-119.710;2022-08-03T00:58:06;6;6;
40569;PMS5003;26270;34.428;-119.710;2022-08-03T01:00:36;7;7;
40569;PMS5003;26270;34.428;-119.710;2022-08-03T01:03:06;5;5;
40569;PMS5003;26270;34.428;-119.710;2022-08-03T01:05:37;8;7;
40569;PMS5003;26270;34.428;-119.710;2022-08-03T01:08:13;6;6;
40569;PMS5003;26270;34.428;-119.710;2022-08-03T01:10:51;6;5;
40569;PMS5003;26270;34.428;-119.710;2022-08-03T01:13:29;9;8;
40569;PMS5003;26270;34.428;-119.710;2022-08-03T01:16:05;12;12;
40569;PMS5003;26270;34.428;-119.710;2022-08-03T01:18:40;7;6;
40569;PMS5003;26270;34.428;-119.710;2022-08-03T01:21:13;8;7;
40569;PMS5003;26270;34.428;-119.710;2022-08-03T01:23:50;10;9;
40569;PMS5003;26270;34.428;-119.710;2022-08-03T01:26:36;8;7;
40569;PMS5003;26270;34.428;-119.710;2022-08-03T01:29:37;11;10;
40569;PMS5003;26270;34.428;-119.710;2022-08-03T01:32:25;9;9;
40569;PMS5003;26270;34.428;-119.710;2022-08-03T01:35:02;10;8;
40569;PMS5003;26270;34.428;-119.710;2022-08-03T01:37:36;8;8;
40569;PMS5003;26270;34.428;-119.710;2022-08-03T01:40:09;9;8;
40569;PMS5003;26270;34.428;-119.710;2022-08-03T01:42:39;11;10;
40569;PMS5003;26270;34.428;-119.710;2022-08-03T01:45:09;9;8;
40569;PMS5003;26270;34.428;-119.710;2022-08-03T01:47:40;10;10;
40569;PMS5003;26270;34.428;-119.710;2022-08-03T01:50:11;13;11;
40569;PMS5003;26270;34.428;-119.710;2022-08-03T01:52:41;12;9;
40569;PMS5003;26270;34.428;-119.710;2022-08-03T01:55:11;13;11;
40569;PMS5003;26270;34.428;-119.710;2022-08-03T01:57:42;8;8;
40569;PMS5003;26270;34.428;-119.710;2022-08-03T02:00:14;9;9;
40569;PMS5003;26270;34.428;-119.710;2022-08-03T02:02:43;10;10;
40569;PMS5003;26270;34.428;-119.710;2022-08-03T02:05:15;9;8;
40569;PMS5003;26270;34.428;-119.710;2022-08-03T02:07:46;11;10;
40569;PMS5003;26270;34.428;-119.710;2022-08-03T02:10:17;10;10;
40569;PMS5003;26270;34.428;-119.710;2022-08-03T02:12:47;10;10;
40569;PMS5003;26270;34.428;-119.710;2022-08-03T02:15:16;9;9;
40569;PMS5003;26270;34.428;-119.710;2022-08-03T02:17:46;12;11;
40569;PMS5003;26270;34.428;-119.710;2022-08-03T02:20:15;10;10;
40569;PMS5003;26270;34.428;-119.710;2022-08-03T02:22:45;12;10;
40569;PMS5003;26270;34.428;-119.710;2022-08-03T02:25:14;11;9;
40569;PMS5003;26270;34.428;-119.710;2022-08-03T02:27:45;10;9;
40569;PMS5003;26270;34.428;-119.710;2022-08-03T02:30:19;10;10;
40569;PMS5003;26270;34.428;-119.710;2022-08-03T02:32:51;10;9;
40569;PMS5003;26270;34.428;-119.710;2022-08-03T02:35:24;9;9;
40569;PMS5003;26270;34.428;-119.710;2022-08-03T02:37:56;10;9;
40569;PMS5003;26270;34.428;-119.710;2022-08-03T02:40:28;11;10;
40569;PMS5003;26270;34.428;-119.710;2022-08-03T02:43:00;12;10;
40569;PMS5003;26270;34.428;-119.710;2022-08-03T02:45:34;10;10;
40569;PMS5003;26270;34.428;-119.710;2022-08-03T02:48:07;10;10;
40569;PMS5003;26270;34.428;-119.710;2022-08-03T02:50:37;11;11;
40569;PMS5003;26270;34.428;-119.710;2022-08-03T02:53:08;14;10;
40569;PMS5003;26270;34.428;-119.710;2022-08-03T02:55:37;7;7;
40569;PMS5003;26270;34.428;-119.710;2022-08-03T02:58:08;8;8;
40569;PMS5003;26270;34.428;-119.710;2022-08-03T03:00:37;11;10;
40569;PMS5003;26270;34.428;-119.710;2022-08-03T03:03:07;10;9;
40569;PMS5003;26270;34.428;-119.710;2022-08-03T03:05:37;12;10;
40569;PMS5003;26270;34.428;-119.710;2022-08-03T03:08:06;11;10;
40569;PMS5003;26270;34.428;-119.710;2022-08-03T03:10:38;12;10;
40569;PMS5003;26270;34.428;-119.710;2022-08-03T03:13:07;13;11;
40569;PMS5003;26270;34.428;-119.710;2022-08-03T03:15:36;12;10;
40569;PMS5003;26270;34.428;-119.710;2022-08-03T03:18:07;10;9;
40569;PMS5003;26270;34.428;-119.710;2022-08-03T03:20:36;11;11;
40569;PMS5003;26270;34.428;-119.710;2022-08-03T03:23:06;10;9;
40569;PMS5003;26270;34.428;-119.710;2022-08-03T03:25:36;11;10;
40569;PMS5003;26270;34.428;-119.710;2022-08-03T03:28:06;9;9;
40569;PMS5003;26270;34.428;-119.710;2022-08-03T03:30:34;9;9;
40569;PMS5003;26270;34.428;-119.710;2022-08-03T03:33:02;11;11;
40569;PMS5003;26270;34.428;-119.710;2022-08-03T03:35:30;9;9;
40569;PMS5003;26270;34.428;-119.710;2022-08-03T03:38:00;8;8;
40569;PMS5003;26270;34.428;-119.710;2022-08-03T03:40:28;12;11;
40569;PMS5003;26270;34.428;-119.710;2022-08-03T03:42:56;11;10;
40569;PMS5003;26270;34.428;-119.710;2022-08-03T03:45:24;13;10;
40569;PMS5003;26270;34.428;-119.710;2022-08-03T03:47:53;9;9;
40569;PMS5003;26270;34.428;-119.710;2022-08-03T03:50:22;11;9;
40569;PMS5003;26270;34.428;-119.710;2022-08-03T03:52:51;9;8;
40569;PMS5003;26270;34.428;-119.710;2022-08-03T03:55:19;10;9;
40569;PMS5003;26270;34.428;-119.710;2022-08-03T03:57:47;12;11;
40569;PMS5003;26270;34.428;-119.710;2022-08-03T04:03:09;10;9;
40569;PMS5003;26270;34.428;-119.710;2022-08-03T04:05:37;12;10;
40569;PMS5003;26270;34.428;-119.710;2022-08-03T04:08:06;10;10;
40569;PMS5003;26270;34.428;-119.710;2022-08-03T04:10:36;7;7;
40569;PMS5003;26270;34.428;-119.710;2022-08-03T04:13:08;11;10;
40569;PMS5003;26270;34.428;-119.710;2022-08-03T04:15:38;9;8;
40569;PMS5003;26270;34.428;-119.710;2022-08-03T04:18:08;9;8;
40569;PMS5003;26270;34.428;-119.710;2022-08-03T04:20:39;9;8;
40569;PMS5003;26270;34.428;-119.710;2022-08-03T04:23:14;12;11;
40569;PMS5003;26270;34.428;-119.710;2022-08-03T04:25:48;14;9;
40569;PMS5003;26270;34.428;-119.710;2022-08-03T04:28:19;10;9;
40569;PMS5003;26270;34.428;-119.710;2022-08-03T04:30:49;12;11;
40569;PMS5003;26270;34.428;-119.710;2022-08-03T04:33:19;12;11;
40569;PMS5003;26270;34.428;-119.710;2022-08-03T04:35:49;10;8;
40569;PMS5003;26270;34.428;-119.710;2022-08-03T04:38:21;8;7;
40569;PMS5003;26270;34.428;-119.710;2022-08-03T04:40:51;11;9;
40569;PMS5003;26270;34.428;-119.710;2022-08-03T04:43:20;9;8;
40569;PMS5003;26270;34.428;-119.710;2022-08-03T04:45:50;13;9;
40569;PMS5003;26270;34.428;-119.710;2022-08-03T04:48:20;11;9;
40569;PMS5003;26270;34.428;-119.710;2022-08-03T04:50:48;10;9;
40569;PMS5003;26270;34.428;-119.710;2022-08-03T04:53:16;11;10;
40569;PMS5003;26270;34.428;-119.710;2022-08-03T04:55:44;12;10;
40569;PMS5003;26270;34.428;-119.710;2022-08-03T04:58:12;9;9;
40569;PMS5003;26270;34.428;-119.710;2022-08-03T05:00:40;10;10;
40569;PMS5003;26270;34.428;-119.710;2022-08-03T05:03:09;12;10;
40569;PMS5003;26270;34.428;-119.710;2022-08-03T05:05:37;10;8;
40569;PMS5003;26270;34.428;-119.710;2022-08-03T05:08:05;10;10;
40569;PMS5003;26270;34.428;-119.710;2022-08-03T05:10:33;9;9;
40569;PMS5003;26270;34.428;-119.710;2022-08-03T05:13:01;8;8;
40569;PMS5003;26270;34.428;-119.710;2022-08-03T05:15:29;12;11;
40569;PMS5003;26270;34.428;-119.710;2022-08-03T05:17:58;9;8;
40569;PMS5003;26270;34.428;-119.710;2022-08-03T05:20:26;11;8;
40569;PMS5003;26270;34.428;-119.710;2022-08-03T05:22:54;12;11;
40569;PMS5003;26270;34.428;-119.710;2022-08-03T05:25:22;9;9;
40569;PMS5003;26270;34.428;-119.710;2022-08-03T05:27:50;12;11;
40569;PMS5003;26270;34.428;-119.710;2022-08-03T05:30:19;9;9;
40569;PMS5003;26270;34.428;-119.710;2022-08-03T05:32:48;13;11;
40569;PMS5003;26270;34.428;-119.710;2022-08-03T05:35:16;13;11;
40569;PMS5003;26270;34.428;-119.710;2022-08-03T05:37:44;11;11;
40569;PMS5003;26270;34.428;-119.710;2022-08-03T05:40:13;13;12;
40569;PMS5003;26270;34.428;-119.710;2022-08-03T05:42:41;9;9;
40569;PMS5003;26270;34.428;-119.710;2022-08-03T05:45:10;17;12;
40569;PMS5003;26270;34.428;-119.710;2022-08-03T05:47:39;11;11;
40569;PMS5003;26270;34.428;-119.710;2022-08-03T05:50:08;10;10;
40569;PMS5003;26270;34.428;-119.710;2022-08-03T05:52:36;11;10;
40569;PMS5003;26270;34.428;-119.710;2022-08-03T05:55:05;10;10;
40569;PMS5003;26270;34.428;-119.710;2022-08-03T05:57:34;11;10;
40569;PMS5003;26270;34.428;-119.710;2022-08-03T06:00:03;15;14;
40569;PMS5003;26270;34.428;-119.710;2022-08-03T06:02:32;9;8;
40569;PMS5003;26270;34.428;-119.710;2022-08-03T06:05:00;10;9;
40569;PMS5003;26270;34.428;-119.710;2022-08-03T06:07:29;8;8;
40569;PMS5003;26270;34.428;-119.710;2022-08-03T06:09:57;10;8;
40569;PMS5003;26270;34.428;-119.710;2022-08-03T06:12:25;10;10;
40569;PMS5003;26270;34.428;-119.710;2022-08-03T06:14:53;12;10;
40569;PMS5003;26270;34.428;-119.710;2022-08-03T06:17:22;10;9;
40569;PMS5003;26270;34.428;-119.710;2022-08-03T06:19:51;10;8;
40569;PMS5003;26270;34.428;-119.710;2022-08-03T06:22:19;17;11;
40569;PMS5003;26270;34.428;-119.710;2022-08-03T06:24:47;16;11;
40569;PMS5003;26270;34.428;-119.710;2022-08-03T06:27:15;9;9;
40569;PMS5003;26270;34.428;-119.710;2022-08-03T06:29:43;9;9;
40569;PMS5003;26270;34.428;-119.710;2022-08-03T06:32:11;10;10;
40569;PMS5003;26270;34.428;-119.710;2022-08-03T06:34:40;10;10;
40569;PMS5003;26270;34.428;-119.710;2022-08-03T06:37:08;10;10;
40569;PMS5003;26270;34.428;-119.710;2022-08-03T06:39:36;10;8;
40569;PMS5003;26270;34.428;-119.710;2022-08-03T06:42:05;16;11;
40569;PMS5003;26270;34.428;-119.710;2022-08-03T06:44:33;9;9;
40569;PMS5003;26270;34.428;-119.710;2022-08-03T06:47:01;10;10;
40569;PMS5003;26270;34.428;-119.710;2022-08-03T06:49:29;11;10;
40569;PMS5003;26270;34.428;-119.710;2022-08-03T06:51:57;13;11;
40569;PMS5003;26270;34.428;-119.710;2022-08-03T06:54:25;11;10;
40569;PMS5003;26270;34.428;-119.710;2022-08-03T06:56:53;10;10;
40569;PMS5003;26270;34.428;-119.710;2022-08-03T06:59:22;12;10;
40569;PMS5003;26270;34.428;-119.710;2022-08-03T07:01:50;12;11;
40569;PMS5003;26270;34.428;-119.710;2022-08-03T07:04:18;10;10;
40569;PMS5003;26270;34.428;-119.710;2022-08-03T07:06:46;11;10;
40569;PMS5003;26270;34.428;-119.710;2022-08-03T07:09:14;13;10;
40569;PMS5003;26270;34.428;-119.710;2022-08-03T07:11:42;7;7;
40569;PMS5003;26270;34.428;-119.710;2022-08-03T07:14:10;9;9;
40569;PMS5003;26270;34.428;-119.710;2022-08-03T07:16:38;9;9;
40569;PMS5003;26270;34.428;-119.710;2022-08-03T07:19:07;10;9;
40569;PMS5003;26270;34.428;-119.710;2022-08-03T07:21:35;11;11;
40569;PMS5003;26270;34.428;-119.710;2022-08-03T07:24:03;12;11;
40569;PMS5003;26270;34.428;-119.710;2022-08-03T07:26:32;11;11;
40569;PMS5003;26270;34.428;-119.710;2022-08-03T07:29:00;10;10;
40569;PMS5003;26270;34.428;-119.710;2022-08-03T07:31:28;15;11;
40569;PMS5003;26270;34.428;-119.710;2022-08-03T07:33:56;10;10;
40569;PMS5003;26270;34.428;-119.710;2022-08-03T07:36:25;10;9;
40569;PMS5003;26270;34.428;-119.710;2022-08-03T07:38:53;11;10;
40569;PMS5003;26270;34.428;-119.710;2022-08-03T07:41:21;14;11;
40569;PMS5003;26270;34.428;-119.710;2022-08-03T07:43:49;8;8;
40569;PMS5003;26270;34.428;-119.710;2022-08-03T07:46:18;12;10;
40569;PMS5003;26270;34.428;-119.710;2022-08-03T07:48:46;11;9;
40569;PMS5003;26270;34.428;-119.710;2022-08-03T07:51:14;11;10;
40569;PMS5003;26270;34.428;-119.710;2022-08-03T07:53:42;10;9;
40569;PMS5003;26270;34.428;-119.710;2022-08-03T07:56:10;10;10;
40569;PMS5003;26270;34.428;-119.710;2022-08-03T07:58:39;10;9;
40569;PMS5003;26270;34.428;-119.710;2022-08-03T08:01:07;9;9;
40569;PMS5003;26270;34.428;-119.710;2022-08-03T08:03:34;11;8;
40569;PMS5003;26270;34.428;-119.710;2022-08-03T08:06:03;9;9;
40569;PMS5003;26270;34.428;-119.710;2022-08-03T08:08:32;7;7;
40569;PMS5003;26270;34.428;-119.710;2022-08-03T08:11:00;8;7;
40569;PMS5003;26270;34.428;-119.710;2022-08-03T08:13:28;13;12;
40569;PMS5003;26270;34.428;-119.710;2022-08-03T08:15:57;8;7;
40569;PMS5003;26270;34.428;-119.710;2022-08-03T08:18:25;9;9;
40569;PMS5003;26270;34.428;-119.710;2022-08-03T08:20:53;8;7;
40569;PMS5003;26270;34.428;-119.710;2022-08-03T08:23:21;9;9;
40569;PMS5003;26270;34.428;-119.710;2022-08-03T08:25:49;11;10;
40569;PMS5003;26270;34.428;-119.710;2022-08-03T08:28:18;11;10;
40569;PMS5003;26270;34.428;-119.710;2022-08-03T08:30:47;8;8;
40569;PMS5003;26270;34.428;-119.710;2022-08-03T08:33:15;8;8;
40569;PMS5003;26270;34.428;-119.710;2022-08-03T08:35:43;8;8;
40569;PMS5003;26270;34.428;-119.710;2022-08-03T08:38:12;9;9;
40569;PMS5003;26270;34.428;-119.710;2022-08-03T08:40:40;11;9;
40569;PMS5003;26270;34.428;-119.710;2022-08-03T08:43:08;8;8;
40569;PMS5003;26270;34.428;-119.710;2022-08-03T08:45:36;10;8;
40569;PMS5003;26270;34.428;-119.710;2022-08-03T08:48:07;11;9;
40569;PMS5003;26270;34.428;-119.710;2022-08-03T08:50:36;10;9;
40569;PMS5003;26270;34.428;-119.710;2022-08-03T08:53:06;7;7;
40569;PMS5003;26270;34.428;-119.710;2022-08-03T08:55:37;11;10;
40569;PMS5003;26270;34.428;-119.710;2022-08-03T08:58:06;12;9;
40569;PMS5003;26270;34.428;-119.710;2022-08-03T09:00:36;11;9;
40569;PMS5003;26270;34.428;-119.710;2022-08-03T09:03:04;8;7;
40569;PMS5003;26270;34.428;-119.710;2022-08-03T09:05:32;8;8;
40569;PMS5003;26270;34.428;-119.710;2022-08-03T09:08:01;10;8;
40569;PMS5003;26270;34.428;-119.710;2022-08-03T09:10:31;9;9;
40569;PMS5003;26270;34.428;-119.710;2022-08-03T09:12:59;9;9;
40569;PMS5003;26270;34.428;-119.710;2022-08-03T09:15:29;10;9;
40569;PMS5003;26270;34.428;-119.710;2022-08-03T09:17:58;12;9;
40569;PMS5003;26270;34.428;-119.710;2022-08-03T09:20:28;11;10;
40569;PMS5003;26270;34.428;-119.710;2022-08-03T09:22:59;13;11;
40569;PMS5003;26270;34.428;-119.710;2022-08-03T09:25:29;16;9;
40569;PMS5003;26270;34.428;-119.710;2022-08-03T09:28:03;11;10;
40569;PMS5003;26270;34.428;-119.710;2022-08-03T09:30:34;11;11;
40569;PMS5003;26270;34.428;-119.710;2022-08-03T09:33:03;14;12;
40569;PMS5003;26270;34.428;-119.710;2022-08-03T09:35:33;9;9;
40569;PMS5003;26270;34.428;-119.710;2022-08-03T09:38:16;10;9;
40569;PMS5003;26270;34.428;-119.710;2022-08-03T09:40:45;10;9;
40569;PMS5003;26270;34.428;-119.710;2022-08-03T09:43:13;8;7;
40569;PMS5003;26270;34.428;-119.710;2022-08-03T09:45:42;10;8;
40569;PMS5003;26270;34.428;-119.710;2022-08-03T09:48:27;8;8;
40569;PMS5003;26270;34.428;-119.710;2022-08-03T09:50:57;14;13;
40569;PMS5003;26270;34.428;-119.710;2022-08-03T09:53:26;12;10;
40569;PMS5003;26270;34.428;-119.710;2022-08-03T09:55:55;15;11;
40569;PMS5003;26270;34.428;-119.710;2022-08-03T09:58:24;12;10;
40569;PMS5003;26270;34.428;-119.710;2022-08-03T10:00:54;13;11;
40569;PMS5003;26270;34.428;-119.710;2022-08-03T10:03:25;13;12;
40569;PMS5003;26270;34.428;-119.710;2022-08-03T10:05:55;12;12;
40569;PMS5003;26270;34.428;-119.710;2022-08-03T10:08:24;13;10;
40569;PMS5003;26270;34.428;-119.710;2022-08-03T10:10:52;11;11;
40569;PMS5003;26270;34.428;-119.710;2022-08-03T10:13:20;8;7;
40569;PMS5003;26270;34.428;-119.710;2022-08-03T10:15:50;14;12;
40569;PMS5003;26270;34.428;-119.710;2022-08-03T10:18:18;10;10;
40569;PMS5003;26270;34.428;-119.710;2022-08-03T10:20:48;9;8;
40569;PMS5003;26270;34.428;-119.710;2022-08-03T10:23:18;12;10;
40569;PMS5003;26270;34.428;-119.710;2022-08-03T10:25:48;11;11;
40569;PMS5003;26270;34.428;-119.710;2022-08-03T10:28:22;17;11;
40569;PMS5003;26270;34.428;-119.710;2022-08-03T10:30:51;11;10;
40569;PMS5003;26270;34.428;-119.710;2022-08-03T10:33:23;14;10;
40569;PMS5003;26270;34.428;-119.710;2022-08-03T10:35:55;13;12;
40569;PMS5003;26270;34.428;-119.710;2022-08-03T10:38:28;10;9;
40569;PMS5003;26270;34.428;-119.710;2022-08-03T10:40:58;13;11;
40569;PMS5003;26270;34.428;-119.710;2022-08-03T10:43:31;12;10;
40569;PMS5003;26270;34.428;-119.710;2022-08-03T10:46:07;12;10;
40569;PMS5003;26270;34.428;-119.710;2022-08-03T10:48:36;10;9;
40569;PMS5003;26270;34.428;-119.710;2022-08-03T10:51:04;11;11;
40569;PMS5003;26270;34.428;-119.710;2022-08-03T10:53:34;11;9;
40569;PMS5003;26270;34.428;-119.710;2022-08-03T10:56:03;14;10;
40569;PMS5003;26270;34.428;-119.710;2022-08-03T10:58:47;11;11;
40569;PMS5003;26270;34.428;-119.710;2022-08-03T11:01:17;11;10;
40569;PMS5003;26270;34.428;-119.710;2022-08-03T11:04:18;14;13;
40569;PMS5003;26270;34.428;-119.710;2022-08-03T11:06:47;13;12;
40569;PMS5003;26270;34.428;-119.710;2022-08-03T11:09:44;14;13;
40569;PMS5003;26270;34.428;-119.710;2022-08-03T11:12:20;16;16;
40569;PMS5003;26270;34.428;-119.710;2022-08-03T11:14:50;19;17;
40569;PMS5003;26270;34.428;-119.710;2022-08-03T11:17:20;12;11;
40569;PMS5003;26270;34.428;-119.710;2022-08-03T11:19:50;14;13;
40569;PMS5003;26270;34.428;-119.710;2022-08-03T11:22:20;15;12;
40569;PMS5003;26270;34.428;-119.710;2022-08-03T11:24:56;9;9;
40569;PMS5003;26270;34.428;-119.710;2022-08-03T11:27:27;15;13;
40569;PMS5003;26270;34.428;-119.710;2022-08-03T11:29:58;10;10;
40569;PMS5003;26270;34.428;-119.710;2022-08-03T11:33:00;16;14;
40569;PMS5003;26270;34.428;-119.710;2022-08-03T11:35:29;17;15;
40569;PMS5003;26270;34.428;-119.710;2022-08-03T11:38:02;16;16;
40569;PMS5003;26270;34.428;-119.710;2022-08-03T11:40:33;16;15;
40569;PMS5003;26270;34.428;-119.710;2022-08-03T11:43:02;16;16;
40569;PMS5003;26270;34.428;-119.710;2022-08-03T11:45:31;16;12;
40569;PMS5003;26270;34.428;-119.710;2022-08-03T11:48:01;15;14;
40569;PMS5003;26270;34.428;-119.710;2022-08-03T11:50:40;18;16;
40569;PMS5003;26270;34.428;-119.710;2022-08-03T11:53:11;15;14;
40569;PMS5003;26270;34.428;-119.710;2022-08-03T11:55:41;14;14;
40569;PMS5003;26270;34.428;-119.710;2022-08-03T11:58:14;19;18;
40569;PMS5003;26270;34.428;-119.710;2022-08-03T12:00:43;14;13;
40569;PMS5003;26270;34.428;-119.710;2022-08-03T12:03:12;15;15;
40569;PMS5003;26270;34.428;-119.710;2022-08-03T12:05:42;16;15;
40569;PMS5003;26270;34.428;-119.710;2022-08-03T12:08:12;17;16;
40569;PMS5003;26270;34.428;-119.710;2022-08-03T12:10:46;16;16;
40569;PMS5003;26270;34.428;-119.710;2022-08-03T12:13:15;15;14;
40569;PMS5003;26270;34.428;-119.710;2022-08-03T12:15:50;13;13;
40569;PMS5003;26270;34.428;-119.710;2022-08-03T12:18:19;13;13;
40569;PMS5003;26270;34.428;-119.710;2022-08-03T12:20:48;14;13;
40569;PMS5003;26270;34.428;-119.710;2022-08-03T12:23:18;15;14;
40569;PMS5003;26270;34.428;-119.710;2022-08-03T12:25:46;17;15;
40569;PMS5003;26270;34.428;-119.710;2022-08-03T12:28:16;14;14;
40569;PMS5003;26270;34.428;-119.710;2022-08-03T12:30:46;14;14;
40569;PMS5003;26270;34.428;-119.710;2022-08-03T12:33:17;17;16;
40569;PMS5003;26270;34.428;-119.710;2022-08-03T12:35:48;15;15;
40569;PMS5003;26270;34.428;-119.710;2022-08-03T12:38:28;16;15;
40569;PMS5003;26270;34.428;-119.710;2022-08-03T12:40:58;13;13;
40569;PMS5003;26270;34.428;-119.710;2022-08-03T12:43:27;16;16;
40569;PMS5003;26270;34.428;-119.710;2022-08-03T12:46:08;27;26;
40569;PMS5003;26270;34.428;-119.710;2022-08-03T12:48:56;35;35;
40569;PMS5003;26270;34.428;-119.710;2022-08-03T12:51:26;17;17;
40569;PMS5003;26270;34.428;-119.710;2022-08-03T12:53:55;21;20;
40569;PMS5003;26270;34.428;-119.710;2022-08-03T12:56:24;28;25;
40569;PMS5003;26270;34.428;-119.710;2022-08-03T12:58:52;23;23;
40569;PMS5003;26270;34.428;-119.710;2022-08-03T13:01:21;20;19;
40569;PMS5003;26270;34.428;-119.710;2022-08-03T13:03:51;23;23;
40569;PMS5003;26270;34.428;-119.710;2022-08-03T13:06:20;30;30;
40569;PMS5003;26270;34.428;-119.710;2022-08-03T13:08:49;17;16;
40569;PMS5003;26270;34.428;-119.710;2022-08-03T13:11:29;13;12;
40569;PMS5003;26270;34.428;-119.710;2022-08-03T13:13:57;24;24;
40569;PMS5003;26270;34.428;-119.710;2022-08-03T13:16:25;27;26;
40569;PMS5003;26270;34.428;-119.710;2022-08-03T13:18:53;23;23;
40569;PMS5003;26270;34.428;-119.710;2022-08-03T13:21:22;27;25;
40569;PMS5003;26270;34.428;-119.710;2022-08-03T13:23:50;19;16;
40569;PMS5003;26270;34.428;-119.710;2022-08-03T13:26:18;11;11;
40569;PMS5003;26270;34.428;-119.710;2022-08-03T13:28:46;11;11;
40569;PMS5003;26270;34.428;-119.710;2022-08-03T13:31:15;10;9;
40569;PMS5003;26270;34.428;-119.710;2022-08-03T13:33:43;9;9;
40569;PMS5003;26270;34.428;-119.710;2022-08-03T13:36:11;11;10;
40569;PMS5003;26270;34.428;-119.710;2022-08-03T13:38:40;12;10;
40569;PMS5003;26270;34.428;-119.710;2022-08-03T13:41:08;10;10;
40569;PMS5003;26270;34.428;-119.710;2022-08-03T13:43:36;12;11;
40569;PMS5003;26270;34.428;-119.710;2022-08-03T13:46:04;10;10;
40569;PMS5003;26270;34.428;-119.710;2022-08-03T13:48:33;9;8;
40569;PMS5003;26270;34.428;-119.710;2022-08-03T13:51:01;9;9;
40569;PMS5003;26270;34.428;-119.710;2022-08-03T13:53:30;15;11;
40569;PMS5003;26270;34.428;-119.710;2022-08-03T13:55:58;11;10;
40569;PMS5003;26270;34.428;-119.710;2022-08-03T13:58:26;13;11;
40569;PMS5003;26270;34.428;-119.710;2022-08-03T14:00:54;11;10;
40569;PMS5003;26270;34.428;-119.710;2022-08-03T14:03:23;10;9;
40569;PMS5003;26270;34.428;-119.710;2022-08-03T14:05:51;13;12;
40569;PMS5003;26270;34.428;-119.710;2022-08-03T14:08:19;9;8;
40569;PMS5003;26270;34.428;-119.710;2022-08-03T14:10:47;12;10;
40569;PMS5003;26270;34.428;-119.710;2022-08-03T14:13:15;12;10;
40569;PMS5003;26270;34.428;-119.710;2022-08-03T14:15:43;11;11;
40569;PMS5003;26270;34.428;-119.710;2022-08-03T14:18:11;12;11;
40569;PMS5003;26270;34.428;-119.710;2022-08-03T14:20:40;10;10;
40569;PMS5003;26270;34.428;-119.710;2022-08-03T14:23:08;10;10;
40569;PMS5003;26270;34.428;-119.710;2022-08-03T14:25:36;9;9;
40569;PMS5003;26270;34.428;-119.710;2022-08-03T14:28:04;9;9;
40569;PMS5003;26270;34.428;-119.710;2022-08-03T14:30:32;12;11;
40569;PMS5003;26270;34.428;-119.710;2022-08-03T14:33:01;8;7;
40569;PMS5003;26270;34.428;-119.710;2022-08-03T14:35:29;11;9;
40569;PMS5003;26270;34.428;-119.710;2022-08-03T14:37:58;11;9;
40569;PMS5003;26270;34.428;-119.710;2022-08-03T14:40:26;10;9;
40569;PMS5003;26270;34.428;-119.710;2022-08-03T14:42:54;9;9;
40569;PMS5003;26270;34.428;-119.710;2022-08-03T14:45:22;9;9;
40569;PMS5003;26270;34.428;-119.710;2022-08-03T14:47:50;10;9;
40569;PMS5003;26270;34.428;-119.710;2022-08-03T14:50:19;11;10;
40569;PMS5003;26270;34.428;-119.710;2022-08-03T14:52:48;10;9;
40569;PMS5003;26270;34.428;-119.710;2022-08-03T14:55:16;10;9;
40569;PMS5003;26270;34.428;-119.710;2022-08-03T14:57:44;11;9;
40569;PMS5003;26270;34.428;-119.710;2022-08-03T15:00:13;11;10;
40569;PMS5003;26270;34.428;-119.710;2022-08-03T15:02:42;9;9;
40569;PMS5003;26270;34.428;-119.710;2022-08-03T15:05:10;9;9;
40569;PMS5003;26270;34.428;-119.710;2022-08-03T15:07:38;10;9;
40569;PMS5003;26270;34.428;-119.710;2022-08-03T15:10:07;11;10;
40569;PMS5003;26270;34.428;-119.710;2022-08-03T15:12:34;12;9;
40569;PMS5003;26270;34.428;-119.710;2022-08-03T15:15:03;9;9;
40569;PMS5003;26270;34.428;-119.710;2022-08-03T15:17:32;12;11;
40569;PMS5003;26270;34.428;-119.710;2022-08-03T15:20:00;9;8;
40569;PMS5003;26270;34.428;-119.710;2022-08-03T15:22:28;10;8;
40569;PMS5003;26270;34.428;-119.710;2022-08-03T15:24:57;10;10;
40569;PMS5003;26270;34.428;-119.710;2022-08-03T15:27:25;11;10;
40569;PMS5003;26270;34.428;-119.710;2022-08-03T15:29:54;8;8;
40569;PMS5003;26270;34.428;-119.710;2022-08-03T15:32:21;15;11;
40569;PMS5003;26270;34.428;-119.710;2022-08-03T15:34:50;11;10;
40569;PMS5003;26270;34.428;-119.710;2022-08-03T15:37:18;10;8;
40569;PMS5003;26270;34.428;-119.710;2022-08-03T15:39:46;12;12;
40569;PMS5003;26270;34.428;-119.710;2022-08-03T15:42:14;12;10;
40569;PMS5003;26270;34.428;-119.710;2022-08-03T15:44:42;10;10;
40569;PMS5003;26270;34.428;-119.710;2022-08-03T15:47:10;13;11;
40569;PMS5003;26270;34.428;-119.710;2022-08-03T15:49:38;11;11;
40569;PMS5003;26270;34.428;-119.710;2022-08-03T15:52:07;12;10;
40569;PMS5003;26270;34.428;-119.710;2022-08-03T15:54:35;14;10;
40569;PMS5003;26270;34.428;-119.710;2022-08-03T15:57:03;13;11;
40569;PMS5003;26270;34.428;-119.710;2022-08-03T15:59:32;10;9;
40569;PMS5003;26270;34.428;-119.710;2022-08-03T16:01:59;8;8;